createdAt,value
2019-04-25T06:35:38.380Z,77.50
2019-04-25T06:38:07.428Z,67.90
2019-04-25T06:40:36.253Z,68.60
2019-04-25T06:43:05.158Z,68.90
2019-04-25T06:45:51.927Z,69.00
2019-04-25T06:48:39.090Z,68.60
2019-04-25T06:51:08.113Z,68.20
2019-04-25T06:53:36.883Z,68.00
2019-04-25T06:56:06.239Z,67.80
2019-04-25T06:58:35.533Z,67.40
2019-04-25T07:01:04.493Z,67.10
2019-04-25T07:03:35.312Z,66.20
2019-04-25T07:06:03.949Z,65.70
2019-04-25T07:08:33.382Z,66.00
2019-04-25T07:11:03.920Z,66.10
2019-04-25T07:13:35.714Z,66.30
2019-04-25T07:16:04.732Z,66.30
2019-04-25T07:18:36.300Z,65.30
2019-04-25T07:21:04.281Z,64.60
2019-04-25T07:23:34.223Z,66.50
2019-04-25T07:26:10.577Z,66.10
2019-04-25T07:29:16.549Z,65.90
2019-04-25T07:32:05.863Z,66.00
2019-04-25T07:34:35.098Z,66.20
2019-04-25T07:37:03.961Z,66.20
2019-04-25T07:39:34.376Z,64.60
2019-04-25T07:42:04.126Z,64.80
2019-04-25T07:44:45.366Z,64.60
2019-04-25T07:47:04.121Z,64.00
2019-04-25T07:49:33.589Z,64.20
2019-04-25T07:52:03.654Z,63.90
2019-04-25T07:54:34.024Z,63.60
2019-04-25T07:57:03.687Z,62.80
2019-04-25T07:59:34.802Z,61.90
2019-04-25T08:02:03.446Z,62.30
2019-04-25T08:04:32.270Z,62.50
2019-04-25T08:07:01.033Z,62.10
2019-04-25T08:09:30.229Z,61.90
2019-04-25T08:11:59.087Z,61.60
2019-04-25T08:14:39.326Z,61.70
2019-04-25T08:17:08.805Z,60.60
2019-04-25T08:19:37.744Z,59.10
2019-04-25T08:22:06.518Z,58.80
2019-04-25T08:24:37.120Z,59.20
2019-04-25T08:27:06.219Z,57.60
2019-04-25T08:29:38.625Z,58.60
2019-04-25T08:32:05.976Z,58.10
2019-04-25T08:34:36.039Z,57.50
2019-04-25T08:37:17.063Z,56.90
2019-04-25T08:39:38.116Z,56.00
2019-04-25T08:42:06.501Z,55.20
2019-04-25T08:44:35.965Z,55.80
2019-04-25T08:47:05.897Z,55.30
2019-04-25T08:49:49.356Z,54.80
2019-04-25T08:52:17.693Z,54.60
2019-04-25T08:55:04.316Z,52.90
2019-04-25T08:57:54.554Z,54.60
2019-04-25T09:00:36.981Z,54.80
2019-04-25T09:03:09.629Z,54.20
2019-04-25T09:05:44.064Z,53.70
2019-04-25T09:08:14.160Z,51.60
2019-04-25T09:10:44.903Z,52.50
2019-04-25T09:13:13.987Z,51.10
2019-04-25T09:15:45.430Z,52.00
2019-04-25T09:18:14.145Z,52.00
2019-04-25T09:20:43.746Z,51.60
2019-04-25T09:23:13.695Z,49.20
2019-04-25T09:25:44.448Z,49.70
2019-04-25T09:28:14.252Z,50.20
2019-04-25T09:30:44.854Z,50.30
2019-04-25T09:33:14.166Z,50.10
2019-04-25T09:35:44.855Z,49.80
2019-04-25T09:38:13.426Z,49.70
2019-04-25T09:40:44.175Z,46.80
2019-04-25T09:43:13.730Z,49.80
2019-04-25T09:45:58.906Z,49.00
2019-04-25T09:48:46.874Z,49.10
2019-04-25T09:51:33.830Z,47.00
2019-04-25T09:54:34.340Z,48.70
2019-04-25T09:57:21.069Z,48.70
2019-04-25T09:59:49.860Z,49.10
2019-04-25T10:02:18.817Z,48.80
2019-04-25T10:04:48.168Z,49.00
2019-04-25T10:07:17.280Z,48.70
2019-04-25T10:09:46.668Z,46.50
2019-04-25T10:12:16.984Z,45.00
2019-04-25T10:15:04.453Z,44.30
2019-04-25T10:17:33.888Z,46.00
2019-04-25T10:20:03.113Z,46.80
2019-04-25T10:22:31.864Z,46.00
2019-04-25T10:25:00.915Z,45.50
2019-04-25T10:27:30.074Z,45.60
2019-04-25T10:29:59.221Z,45.30
2019-04-25T10:32:28.074Z,43.70
2019-04-25T10:34:56.767Z,45.40
2019-04-25T10:37:26.090Z,44.70
2019-04-25T10:39:55.663Z,45.80
2019-04-25T10:42:24.573Z,45.40
2019-04-25T10:44:56.396Z,43.60
2019-04-25T10:47:23.723Z,43.60
2019-04-25T10:49:53.695Z,43.40
2019-04-25T10:52:23.430Z,45.50
2019-04-25T10:54:54.132Z,45.20
2019-04-25T10:57:24.948Z,45.00
2019-04-25T11:00:05.402Z,44.80
2019-04-25T11:02:25.969Z,45.60
2019-04-25T11:05:03.577Z,46.60
2019-04-25T11:07:33.900Z,46.90
2019-04-25T11:10:03.611Z,43.40
2019-04-25T11:12:33.820Z,45.20
2019-04-25T11:15:04.020Z,45.50
2019-04-25T11:17:33.836Z,44.90
2019-04-25T11:20:03.625Z,44.80
2019-04-25T11:22:34.224Z,45.20
2019-04-25T11:25:03.649Z,43.70
2019-04-25T11:27:34.001Z,42.10
2019-04-25T11:30:10.896Z,44.10
2019-04-25T11:32:34.040Z,44.70
2019-04-25T11:35:05.134Z,43.80
2019-04-25T11:37:34.353Z,44.90
2019-04-25T11:40:09.474Z,44.50
2019-04-25T11:42:38.905Z,44.10
2019-04-25T11:45:10.025Z,43.40
2019-04-25T11:47:39.174Z,41.40
2019-04-25T11:50:09.106Z,41.70
2019-04-25T11:52:38.165Z,39.70
2019-04-25T11:55:08.009Z,42.70
2019-04-25T11:57:36.909Z,42.50
2019-04-25T12:00:06.522Z,42.00
2019-04-25T12:02:35.817Z,42.60
2019-04-25T12:05:05.434Z,42.40
2019-04-25T12:07:34.372Z,42.50
2019-04-25T12:10:03.801Z,42.50
2019-04-25T12:12:33.877Z,41.60
2019-04-25T12:15:04.450Z,42.90
2019-04-25T12:17:35.075Z,43.60
2019-04-25T12:20:04.014Z,43.40
2019-04-25T12:23:04.120Z,42.80
2019-04-25T12:25:23.738Z,42.70
2019-04-25T12:27:53.816Z,42.40
2019-04-25T12:30:36.755Z,42.40
2019-04-25T12:32:54.157Z,40.70
2019-04-25T12:35:24.270Z,40.70
2019-04-25T12:37:53.999Z,40.80
2019-04-25T12:40:24.207Z,39.60
2019-04-25T12:42:53.201Z,39.50
2019-04-25T12:45:45.706Z,40.90
2019-04-25T12:48:15.969Z,40.20
2019-04-25T12:50:46.279Z,40.20
2019-04-25T12:53:15.745Z,40.40
2019-04-25T12:55:44.829Z,40.10
2019-04-25T12:58:13.698Z,39.90
2019-04-25T13:00:49.589Z,39.20
2019-04-25T13:03:14.288Z,38.60
2019-04-25T13:05:44.223Z,39.00
2019-04-25T13:08:14.372Z,39.80
2019-04-25T13:10:44.447Z,39.40
2019-04-25T13:13:15.372Z,39.70
2019-04-25T13:15:46.057Z,39.00
2019-04-25T13:18:15.284Z,39.60
2019-04-25T13:20:44.339Z,40.20
2019-04-25T13:23:14.413Z,40.30
2019-04-25T13:25:44.169Z,40.30
2019-04-25T13:28:35.472Z,38.40
2019-04-25T13:31:33.218Z,38.30
2019-04-25T13:34:05.913Z,38.70
2019-04-25T13:36:35.096Z,39.40
2019-04-25T13:39:07.214Z,39.10
2019-04-25T13:41:36.107Z,37.80
2019-04-25T13:44:05.186Z,37.70
2019-04-25T13:46:34.360Z,38.70
2019-04-25T13:49:04.295Z,38.30
2019-04-25T13:51:33.440Z,37.70
2019-04-25T13:54:02.158Z,36.80
2019-04-25T13:56:31.157Z,36.20
2019-04-25T13:58:59.910Z,37.20
2019-04-25T14:01:29.653Z,37.10
2019-04-25T14:03:58.820Z,36.70
2019-04-25T14:06:28.389Z,36.60
2019-04-25T14:08:57.374Z,35.10
2019-04-25T14:11:26.321Z,37.30
2019-04-25T14:13:55.388Z,36.90
2019-04-25T14:16:40.811Z,35.60
2019-04-25T14:19:38.961Z,35.30
2019-04-25T14:22:07.656Z,36.10
2019-04-25T14:24:36.475Z,36.40
2019-04-25T14:27:06.197Z,36.50
2019-04-25T14:29:35.036Z,35.80
2019-04-25T14:32:05.656Z,36.20
2019-04-25T14:34:34.494Z,36.10
2019-04-25T14:37:03.534Z,35.00
2019-04-25T14:39:32.244Z,35.40
2019-04-25T14:42:00.955Z,34.90
2019-04-25T14:44:29.695Z,33.90
2019-04-25T14:46:58.792Z,33.50
2019-04-25T14:49:28.305Z,33.50
2019-04-25T14:51:57.164Z,33.90
2019-04-25T14:54:32.687Z,35.30
2019-04-25T14:57:06.470Z,34.60
2019-04-25T14:59:35.191Z,33.80
2019-04-25T15:02:04.145Z,33.90
2019-04-25T15:04:33.157Z,33.30
2019-04-25T15:07:02.093Z,33.60
2019-04-25T15:09:31.052Z,33.20
2019-04-25T15:11:59.767Z,33.80
2019-04-25T15:14:29.289Z,33.00
2019-04-25T15:16:58.232Z,31.20
2019-04-25T15:19:27.521Z,31.90
2019-04-25T15:21:56.408Z,33.60
2019-04-25T15:24:25.141Z,33.20
2019-04-25T15:26:53.904Z,33.00
2019-04-25T15:29:22.608Z,32.10
2019-04-25T15:31:56.133Z,32.50
2019-04-25T15:34:23.608Z,32.20
2019-04-25T15:36:58.262Z,33.10
2019-04-25T15:40:04.841Z,33.70
2019-04-25T15:42:58.288Z,32.60
2019-04-25T15:45:37.513Z,32.30
2019-04-25T15:48:07.425Z,32.10
2019-04-25T15:50:36.161Z,33.00
2019-04-25T15:53:05.159Z,32.20
2019-04-25T15:55:34.767Z,33.10
2019-04-25T15:58:03.764Z,32.80
2019-04-25T16:00:36.552Z,32.30
2019-04-25T16:03:06.281Z,31.10
2019-04-25T16:05:35.631Z,31.60
2019-04-25T16:08:04.865Z,32.20
2019-04-25T16:10:34.034Z,32.30
2019-04-25T16:13:03.015Z,31.80
2019-04-25T16:15:31.747Z,32.00
2019-04-25T16:18:00.673Z,32.30
2019-04-25T16:20:29.566Z,32.50
2019-04-25T16:22:58.701Z,31.80
2019-04-25T16:25:27.724Z,32.00
2019-04-25T16:27:56.430Z,31.60
2019-04-25T16:30:29.574Z,31.20
2019-04-25T16:32:58.677Z,32.30
2019-04-25T16:35:28.591Z,32.00
2019-04-25T16:37:58.311Z,31.10
2019-04-25T16:40:27.538Z,31.40
2019-04-25T16:42:58.908Z,31.50
2019-04-25T16:45:27.874Z,32.00
2019-04-25T16:47:56.857Z,32.50
2019-04-25T16:50:26.085Z,32.40
2019-04-25T16:52:55.248Z,32.90
2019-04-25T16:55:24.296Z,33.40
2019-04-25T16:57:53.128Z,33.60
2019-04-25T17:00:38.332Z,33.50
2019-04-25T17:03:07.213Z,33.60
2019-04-25T17:05:37.096Z,34.10
2019-04-25T17:08:06.476Z,33.60
2019-04-25T17:10:35.264Z,34.10
2019-04-25T17:13:05.870Z,34.30
2019-04-25T17:15:52.392Z,34.50
2019-04-25T17:18:24.856Z,33.90
2019-04-25T17:21:19.318Z,35.00
2019-04-25T17:23:48.870Z,34.70
2019-04-25T17:26:19.266Z,34.90
2019-04-25T17:28:50.331Z,35.50
2019-04-25T17:31:34.869Z,35.30
2019-04-25T17:34:14.255Z,35.10
2019-04-25T17:37:03.345Z,35.20
2019-04-25T17:39:37.504Z,35.30
2019-04-25T17:42:06.292Z,34.80
2019-04-25T17:44:36.162Z,35.30
2019-04-25T17:47:06.406Z,35.60
2019-04-25T17:49:36.693Z,35.60
2019-04-25T17:52:05.797Z,35.70
2019-04-25T17:54:36.596Z,36.20
2019-04-25T17:57:05.585Z,36.20
2019-04-25T17:59:34.773Z,36.20
2019-04-25T18:02:03.725Z,36.00
2019-04-25T18:04:34.040Z,36.50
2019-04-25T18:07:03.236Z,36.70
2019-04-25T18:09:32.283Z,36.60
2019-04-25T18:12:01.393Z,36.50
2019-04-25T18:14:30.113Z,37.10
2019-04-25T18:16:59.109Z,37.20
2019-04-25T18:19:32.641Z,36.90
2019-04-25T18:22:08.121Z,37.20
2019-04-25T18:25:00.540Z,37.40
2019-04-25T18:27:39.558Z,37.60
2019-04-25T18:30:08.817Z,37.90
2019-04-25T18:32:39.211Z,37.90
2019-04-25T18:35:20.653Z,38.00
2019-04-25T18:38:02.139Z,38.00
2019-04-25T18:40:36.897Z,38.00
2019-04-25T18:43:15.317Z,37.30
2019-04-25T18:45:46.590Z,38.00
2019-04-25T18:48:15.664Z,38.20
2019-04-25T18:50:44.678Z,38.40
2019-04-25T18:53:31.372Z,38.10
2019-04-25T18:56:06.698Z,38.20
2019-04-25T18:58:57.609Z,38.50
2019-04-25T19:01:44.034Z,38.60
2019-04-25T19:04:21.677Z,38.80
2019-04-25T19:06:57.793Z,38.80
2019-04-25T19:09:22.765Z,38.80
2019-04-25T19:11:52.092Z,38.50
2019-04-25T19:14:27.145Z,38.40
2019-04-25T19:16:57.191Z,38.80
2019-04-25T19:19:27.224Z,38.70
2019-04-25T19:21:55.953Z,38.10
2019-04-25T19:24:25.032Z,38.70
2019-04-25T19:26:53.744Z,38.60
2019-04-25T19:29:22.481Z,38.60
2019-04-25T19:31:52.348Z,38.90
2019-04-25T19:34:22.848Z,39.50
2019-04-25T19:36:51.812Z,39.80
2019-04-25T19:39:23.022Z,39.80
2019-04-25T19:42:12.899Z,40.50
2019-04-25T19:44:42.321Z,39.90
2019-04-25T19:47:11.484Z,40.20
2019-04-25T19:49:40.640Z,40.20
2019-04-25T19:52:10.496Z,40.40
2019-04-25T19:54:39.509Z,40.50
2019-04-25T19:57:08.576Z,40.40
2019-04-25T19:59:37.346Z,40.20
2019-04-25T20:02:11.165Z,40.10
2019-04-25T20:04:48.827Z,40.20
2019-04-25T20:07:23.345Z,40.60
2019-04-25T20:10:07.879Z,40.60
2019-04-25T20:12:40.344Z,40.50
2019-04-25T20:15:09.470Z,40.50
2019-04-25T20:17:38.176Z,40.80
2019-04-25T20:20:07.168Z,41.10
2019-04-25T20:22:35.954Z,40.80
2019-04-25T20:25:05.645Z,41.00
2019-04-25T20:27:34.638Z,41.10
2019-04-25T20:30:04.807Z,41.10
2019-04-25T20:32:33.681Z,41.30
2019-04-25T20:35:02.407Z,41.20
2019-04-25T20:37:31.126Z,41.20
2019-04-25T20:40:00.259Z,40.90
2019-04-25T20:42:29.299Z,41.60
2019-04-25T20:44:58.010Z,41.50
2019-04-25T20:47:26.726Z,41.50
2019-04-25T20:49:55.693Z,41.50
2019-04-25T20:52:24.434Z,41.80
2019-04-25T20:54:53.163Z,42.20
2019-04-25T20:57:22.196Z,41.60
2019-04-25T20:59:51.605Z,41.60
2019-04-25T21:02:20.537Z,41.70
2019-04-25T21:04:50.073Z,41.70
2019-04-25T21:07:19.052Z,41.80
2019-04-25T21:09:48.989Z,41.80
2019-04-25T21:12:18.709Z,42.00
2019-04-25T21:15:18.767Z,41.70
2019-04-25T21:17:54.164Z,41.80
2019-04-25T21:20:23.101Z,42.00
2019-04-25T21:22:51.884Z,42.10
2019-04-25T21:25:20.717Z,42.20
2019-04-25T21:27:50.172Z,42.10
2019-04-25T21:30:19.586Z,41.80
2019-04-25T21:32:53.055Z,41.80
2019-04-25T21:35:23.050Z,42.00
2019-04-25T21:37:52.583Z,41.80
2019-04-25T21:40:37.856Z,41.90
2019-04-25T21:43:10.516Z,42.00
2019-04-25T21:45:39.502Z,42.00
2019-04-25T21:48:08.529Z,42.10
2019-04-25T21:50:37.753Z,42.20
2019-04-25T21:53:06.856Z,42.30
2019-04-25T21:55:35.825Z,42.30
2019-04-25T21:58:04.820Z,42.30
2019-04-25T22:01:02.302Z,42.30
2019-04-25T22:03:31.169Z,42.20
2019-04-25T22:06:00.775Z,42.40
2019-04-25T22:08:30.005Z,42.40
2019-04-25T22:10:59.759Z,42.40
2019-04-25T22:13:28.484Z,42.40
2019-04-25T22:15:58.112Z,42.40
2019-04-25T22:18:27.628Z,42.40
2019-04-25T22:20:56.903Z,42.70
2019-04-25T22:23:26.245Z,42.70
2019-04-25T22:25:56.299Z,42.60
2019-04-25T22:28:25.646Z,42.70
2019-04-25T22:30:57.813Z,42.80
2019-04-25T22:33:35.642Z,42.90
2019-04-25T22:36:13.685Z,43.00
2019-04-25T22:38:42.465Z,42.90
2019-04-25T22:41:11.637Z,43.00
2019-04-25T22:43:44.504Z,43.00
2019-04-25T22:46:25.266Z,43.00
2019-04-25T22:48:49.985Z,43.00
2019-04-25T22:51:19.040Z,43.10
2019-04-25T22:53:48.148Z,43.30
2019-04-25T22:56:16.959Z,43.40
2019-04-25T22:58:45.833Z,43.50
2019-04-25T23:01:43.721Z,43.40
2019-04-25T23:04:19.078Z,43.40
2019-04-25T23:06:48.062Z,43.40
2019-04-25T23:09:16.779Z,43.40
2019-04-25T23:11:46.109Z,43.60
2019-04-25T23:14:15.234Z,43.60
2019-04-25T23:16:43.973Z,43.60
2019-04-25T23:19:13.437Z,44.20
2019-04-25T23:21:42.926Z,43.60
2019-04-25T23:24:13.041Z,43.80
2019-04-25T23:27:20.456Z,43.90
2019-04-25T23:29:49.687Z,44.30
2019-04-25T23:32:18.782Z,45.50
2019-04-25T23:35:22.127Z,45.80
2019-04-25T23:37:37.237Z,45.50
2019-04-25T23:40:07.650Z,45.90
2019-04-25T23:42:36.416Z,45.80
2019-04-25T23:45:07.116Z,45.80
2019-04-25T23:47:36.679Z,45.50
2019-04-25T23:50:07.148Z,45.30
2019-04-25T23:52:36.025Z,45.60
2019-04-25T23:55:05.121Z,45.20
2019-04-25T23:57:33.900Z,45.30
